Time,TemperatureF,DewpointF,PressureIn,WindDirection,WindDirectionDegrees,WindSpeedMPH,WindSpeedGustMPH,Humidity,HourlyPrecipIn,Conditions,Clouds,dailyrainin,SoftwareType,DateUTC
2013-09-07 00:23:00,69.0,58.0,30.09,SSW,212,0.0,-999.0,68,-99.99,,,-99.99,,2013-09-07 04:23:00,
2013-09-07 00:54:00,69.0,58.0,30.09,SSW,206,0.0,-999.0,67,-99.99,,,-99.99,,2013-09-07 04:54:00,
2013-09-07 01:23:00,69.0,56.0,30.09,SSW,212,0.0,-999.0,64,-99.99,,,-99.99,,2013-09-07 05:23:00,
2013-09-07 01:52:00,69.0,56.0,30.09,SSW,209,0.0,-999.0,64,-99.99,,,-99.99,,2013-09-07 05:52:00,
2013-09-07 02:21:00,68.0,55.0,30.09,South,185,0.0,-999.0,64,-99.99,,,-99.99,,2013-09-07 06:21:00,
2013-09-07 02:52:00,68.0,57.0,30.09,South,185,0.0,-999.0,67,-99.99,,,-99.99,,2013-09-07 06:52:00,
2013-09-07 03:12:00,66.0,56.0,30.08,South,186,0.0,-999.0,70,-99.99,,,-99.99,,2013-09-07 07:12:00,
2013-09-07 03:22:00,66.0,56.0,30.08,South,186,0.0,-999.0,71,-99.99,,,-99.99,,2013-09-07 07:22:00,
2013-09-07 03:52:00,66.0,57.0,30.07,South,186,0.0,-999.0,72,-99.99,,,-99.99,,2013-09-07 07:52:00,
2013-09-07 04:22:00,66.0,56.0,30.08,South,186,0.0,-999.0,71,-99.99,,,-99.99,,2013-09-07 08:22:00,
2013-09-07 04:53:00,65.0,56.0,30.07,South,186,0.0,-999.0,73,-99.99,,,-99.99,,2013-09-07 08:53:00,
2013-09-07 05:21:00,64.0,56.0,30.07,South,188,0.0,-999.0,75,-99.99,,,-99.99,,2013-09-07 09:21:00,
2013-09-07 05:52:00,64.0,56.0,30.06,South,188,0.0,-999.0,76,-99.99,,,-99.99,,2013-09-07 09:52:00,
2013-09-07 06:21:00,64.0,57.0,30.07,South,186,0.0,-999.0,77,-99.99,,,-99.99,,2013-09-07 10:21:00,
2013-09-07 06:52:00,63.0,56.0,30.06,South,186,0.0,-999.0,79,-99.99,,,-99.99,,2013-09-07 10:52:00,
2013-09-07 07:23:00,63.0,57.0,30.06,SW,215,0.0,-999.0,81,-99.99,,,-99.99,,2013-09-07 11:23:00,
2013-09-07 07:52:00,63.0,57.0,30.07,South,182,0.0,-999.0,82,-99.99,,,-99.99,,2013-09-07 11:52:00,
2013-09-07 08:12:00,64.0,58.0,30.07,South,182,0.0,-999.0,82,-99.99,,,-99.99,,2013-09-07 12:12:00,
2013-09-07 08:22:00,64.0,59.0,30.06,South,182,0.0,-999.0,83,-99.99,,,-99.99,,2013-09-07 12:22:00,
2013-09-07 08:52:00,65.0,60.0,30.05,South,181,0.0,-999.0,83,-99.99,,,-99.99,,2013-09-07 12:52:00,
2013-09-07 09:12:00,66.0,61.0,30.05,South,185,0.0,-999.0,84,-99.99,,,-99.99,,2013-09-07 13:12:00,
2013-09-07 09:21:00,67.0,62.0,30.05,South,181,0.0,-999.0,83,-99.99,,,-99.99,,2013-09-07 13:21:00,
2013-09-07 09:52:00,70.0,62.0,30.04,South,181,0.0,-999.0,77,-99.99,,,-99.99,,2013-09-07 13:52:00,
2013-09-07 10:22:00,72.0,64.0,30.04,South,181,0.0,-999.0,76,-99.99,,,-99.99,,2013-09-07 14:22:00,
2013-09-07 10:52:00,74.0,65.0,30.04,SSW,196,0.0,-999.0,73,-99.99,,,-99.99,,2013-09-07 14:52:00,
2013-09-07 11:23:00,76.0,65.0,30.03,SSW,200,0.0,-999.0,68,-99.99,,,-99.99,,2013-09-07 15:23:00,
2013-09-07 11:54:00,78.0,65.0,30.02,SW,229,0.0,-999.0,65,-99.99,,,-99.99,,2013-09-07 15:54:00,
2013-09-07 12:24:00,79.0,66.0,30.01,SW,220,0.0,-999.0,64,-99.99,,,-99.99,,2013-09-07 16:24:00,
2013-09-07 12:53:00,81.0,65.0,30.01,SSW,199,0.0,-999.0,59,-99.99,,,-99.99,,2013-09-07 16:53:00,
2013-09-07 13:24:00,82.0,64.0,30.01,West,278,0.0,-999.0,55,-99.99,,,-99.99,,2013-09-07 17:24:00,
2013-09-07 13:52:00,84.0,65.0,30.00,NNW,343,0.0,-999.0,53,-99.99,,,-99.99,,2013-09-07 17:52:00,
2013-09-07 14:22:00,84.0,64.0,29.98,SSW,195,0.0,-999.0,52,-99.99,,,-99.99,,2013-09-07 18:22:00,
2013-09-07 14:52:00,85.0,64.0,29.97,South,191,0.0,-999.0,49,-99.99,,,-99.99,,2013-09-07 18:52:00,
2013-09-07 15:02:00,85.0,64.0,29.97,South,191,0.0,-999.0,49,-99.99,,,-99.99,,2013-09-07 19:02:00,
2013-09-07 15:11:00,85.0,64.0,29.97,South,191,0.0,-999.0,49,-99.99,,,-99.99,,2013-09-07 19:11:00,
2013-09-07 15:22:00,85.0,64.0,29.97,South,191,0.0,-999.0,49,-99.99,,,-99.99,,2013-09-07 19:22:00,